createdAt,value
2022-11-19T00:02:06.455Z,101487.16
2022-11-19T00:04:35.963Z,101489.16
2022-11-19T00:07:04.429Z,101501.22
2022-11-19T00:09:32.723Z,101489.72
2022-11-19T00:12:18.506Z,101487.94
2022-11-19T00:14:46.802Z,101500.25
2022-11-19T00:17:14.965Z,101496.97
2022-11-19T00:19:44.605Z,101497.69
2022-11-19T00:22:12.923Z,101498.50
2022-11-19T00:24:41.002Z,101500.25
2022-11-19T00:27:09.302Z,101523.44
2022-11-19T00:29:38.094Z,101501.19
2022-11-19T00:32:08.935Z,101501.03
2022-11-19T00:34:37.192Z,101506.31
2022-11-19T00:37:07.049Z,101507.38
2022-11-19T00:39:35.282Z,101508.22
2022-11-19T00:42:03.529Z,101506.66
2022-11-19T00:44:37.004Z,101516.81
2022-11-19T00:47:06.460Z,101507.97
2022-11-19T00:49:34.695Z,101498.25
2022-11-19T00:52:02.862Z,101501.09
2022-11-19T00:54:32.549Z,101501.09
2022-11-19T00:57:00.981Z,101493.81
2022-11-19T00:59:29.125Z,101489.72
2022-11-19T01:01:57.461Z,101497.81
2022-11-19T01:04:25.799Z,101491.19
2022-11-19T01:06:54.016Z,101485.88
2022-11-19T01:09:22.461Z,101485.88
2022-11-19T01:11:52.061Z,101482.13
2022-11-19T01:14:20.099Z,101477.66
2022-11-19T01:16:48.281Z,101467.13
2022-11-19T01:19:17.214Z,101453.84
2022-11-19T01:21:45.664Z,101476.72
2022-11-19T01:24:13.882Z,101467.50
2022-11-19T01:26:45.842Z,101473.47
2022-11-19T01:29:16.031Z,101474.34
2022-11-19T01:31:44.413Z,101468.59
2022-11-19T01:34:12.566Z,101459.50
2022-11-19T01:36:40.985Z,101465.94
2022-11-19T01:39:09.147Z,101473.78
2022-11-19T01:41:37.288Z,101466.03
2022-11-19T01:44:10.438Z,101464.41
2022-11-19T01:46:42.178Z,101468.34
2022-11-19T01:49:14.263Z,101470.16
2022-11-19T01:51:49.456Z,101463.41
2022-11-19T01:54:23.200Z,101465.84
2022-11-19T01:56:51.647Z,101472.97
2022-11-19T01:59:21.438Z,101484.94
2022-11-19T02:01:51.401Z,101477.00
2022-11-19T02:04:22.171Z,101482.97
2022-11-19T02:06:50.515Z,101483.75
2022-11-19T02:09:19.056Z,101477.50
2022-11-19T02:12:16.237Z,101474.78
2022-11-19T02:15:02.433Z,101480.88
2022-11-19T02:17:48.324Z,101486.97
2022-11-19T02:20:46.107Z,101481.84
2022-11-19T02:23:45.999Z,101485.41
2022-11-19T02:26:43.813Z,101471.56
2022-11-19T02:29:21.997Z,101487.41
2022-11-19T02:31:58.790Z,101478.75
2022-11-19T02:34:32.375Z,101492.63
2022-11-19T02:37:05.734Z,101475.09
2022-11-19T02:39:42.708Z,101477.22
2022-11-19T02:42:19.636Z,101480.78
2022-11-19T02:45:02.779Z,101473.69
2022-11-19T02:47:39.032Z,101475.47
2022-11-19T02:50:12.422Z,101473.91
2022-11-19T02:52:41.697Z,101470.38
2022-11-19T02:55:13.393Z,101472.00
2022-11-19T02:57:43.173Z,101462.94
2022-11-19T03:00:30.638Z,101459.47
2022-11-19T03:03:23.977Z,101467.94
2022-11-19T03:05:59.164Z,101467.06
2022-11-19T03:08:28.395Z,101460.28
2022-11-19T03:11:07.283Z,101461.84
2022-11-19T03:14:01.876Z,101460.84
2022-11-19T03:16:43.523Z,101438.31
2022-11-19T03:19:31.873Z,101442.72
2022-11-19T03:22:07.205Z,101420.34
2022-11-19T03:24:41.456Z,101423.06
2022-11-19T03:27:12.816Z,101416.28
2022-11-19T03:29:45.355Z,101424.88
2022-11-19T03:32:19.825Z,101432.63
2022-11-19T03:34:53.248Z,101436.47
2022-11-19T03:37:24.933Z,101447.56
2022-11-19T03:39:57.368Z,101471.03
2022-11-19T03:42:27.728Z,101471.81
2022-11-19T03:45:02.739Z,101463.84
2022-11-19T03:47:38.275Z,101467.31
2022-11-19T03:50:16.725Z,101469.03
2022-11-19T03:52:45.234Z,101457.88
2022-11-19T03:55:13.907Z,101453.72
2022-11-19T03:57:42.344Z,101464.94
2022-11-19T04:00:11.537Z,101453.53
2022-11-19T04:02:39.799Z,101442.03
2022-11-19T04:05:10.245Z,101446.78
2022-11-19T04:07:38.633Z,101449.47
2022-11-19T04:10:10.345Z,101442.34
2022-11-19T04:12:38.764Z,101438.63
2022-11-19T04:15:08.102Z,101443.41
2022-11-19T04:17:38.972Z,101447.56
2022-11-19T04:20:10.614Z,101438.63
2022-11-19T04:22:38.812Z,101438.69
2022-11-19T04:25:10.693Z,101442.28
2022-11-19T04:27:38.933Z,101442.28
2022-11-19T04:30:11.245Z,101440.50
2022-11-19T04:32:39.636Z,101435.16
2022-11-19T04:35:09.802Z,101433.50
2022-11-19T04:37:40.549Z,101419.13
2022-11-19T04:40:11.951Z,101415.84
2022-11-19T04:42:40.155Z,101405.31
2022-11-19T04:45:09.899Z,101405.31
2022-11-19T04:47:40.991Z,101394.91
2022-11-19T04:50:11.451Z,101384.72
2022-11-19T04:52:41.341Z,101379.63
2022-11-19T04:55:10.914Z,101390.03
2022-11-19T04:57:39.158Z,101397.84
2022-11-19T05:00:09.163Z,101396.78
2022-11-19T05:02:40.574Z,101414.88
2022-11-19T05:05:11.325Z,101403.34
2022-11-19T05:07:39.489Z,101419.97
2022-11-19T05:10:11.637Z,101408.72
2022-11-19T05:12:40.253Z,101406.75
2022-11-19T05:15:09.498Z,101398.22
2022-11-19T05:17:40.700Z,101391.28
2022-11-19T05:20:11.168Z,101386.19
2022-11-19T05:22:39.509Z,101386.50
2022-11-19T05:25:10.906Z,101390.16
2022-11-19T05:27:39.254Z,101392.91
2022-11-19T05:30:12.013Z,101387.44
2022-11-19T05:32:40.372Z,101382.47
2022-11-19T05:35:11.148Z,101376.31
2022-11-19T05:37:39.468Z,101378.22
2022-11-19T05:40:10.818Z,101355.84
2022-11-19T05:42:38.961Z,101374.16
2022-11-19T05:45:08.806Z,101353.19
2022-11-19T05:47:37.161Z,101350.75
2022-11-19T05:50:06.200Z,101352.31
2022-11-19T05:52:36.617Z,101338.47
2022-11-19T05:55:07.165Z,101344.66
2022-11-19T05:57:37.317Z,101335.56
2022-11-19T06:00:06.903Z,101344.28
2022-11-19T06:02:35.044Z,101325.16
2022-11-19T06:05:03.731Z,101327.09
2022-11-19T06:07:31.969Z,101319.03
2022-11-19T06:10:01.494Z,101312.16
2022-11-19T06:12:30.012Z,101303.72
2022-11-19T06:14:58.202Z,101305.28
2022-11-19T06:17:26.285Z,101306.97
2022-11-19T06:19:54.536Z,101291.53
2022-11-19T06:22:22.642Z,101284.50
2022-11-19T06:24:50.666Z,101272.94
2022-11-19T06:27:20.358Z,101297.59
2022-11-19T06:29:51.099Z,101291.34
2022-11-19T06:32:23.729Z,101292.56
2022-11-19T06:34:51.831Z,101295.88
2022-11-19T06:37:20.109Z,101300.88
2022-11-19T06:39:48.465Z,101288.66
2022-11-19T06:42:34.290Z,101297.25
2022-11-19T06:45:04.167Z,101301.47
2022-11-19T06:47:32.512Z,101298.22
2022-11-19T06:50:00.682Z,101302.56
2022-11-19T06:52:29.083Z,101318.88
2022-11-19T06:54:57.209Z,101323.88
2022-11-19T06:57:25.551Z,101327.34
2022-11-19T06:59:53.916Z,101335.94
2022-11-19T07:02:23.332Z,101315.28
2022-11-19T07:04:51.566Z,101327.22
2022-11-19T07:07:19.952Z,101330.56
2022-11-19T07:09:48.038Z,101330.56
2022-11-19T07:12:16.232Z,101341.78
2022-11-19T07:14:44.515Z,101340.72
2022-11-19T07:17:12.659Z,101341.94
2022-11-19T07:19:42.357Z,101344.59
2022-11-19T07:22:11.640Z,101342.94
2022-11-19T07:24:43.714Z,101327.22
2022-11-19T07:27:24.503Z,101324.91
2022-11-19T07:29:57.270Z,101333.97
2022-11-19T07:32:25.849Z,101333.97
2022-11-19T07:34:56.845Z,101333.75
2022-11-19T07:37:25.389Z,101311.31
2022-11-19T07:39:53.692Z,101325.38
2022-11-19T07:42:39.169Z,101325.38
2022-11-19T07:45:11.087Z,101315.16
2022-11-19T07:47:39.235Z,101313.28
2022-11-19T07:50:09.864Z,101318.59
2022-11-19T07:52:40.627Z,101307.47
2022-11-19T07:55:09.581Z,101281.59
2022-11-19T07:57:38.563Z,101297.03
2022-11-19T08:00:08.829Z,101299.78
2022-11-19T08:02:40.521Z,101294.47
2022-11-19T08:05:10.934Z,101289.06
2022-11-19T08:07:39.368Z,101285.75
2022-11-19T08:10:08.879Z,101278.88
2022-11-19T08:12:37.205Z,101280.84
2022-11-19T08:15:05.786Z,101263.47
2022-11-19T08:17:51.823Z,101276.47
2022-11-19T08:20:21.308Z,101261.91
2022-11-19T08:22:49.361Z,101262.03
2022-11-19T08:25:17.627Z,101250.84
2022-11-19T08:27:45.945Z,101253.50
2022-11-19T08:30:15.283Z,101246.75
2022-11-19T08:32:43.402Z,101237.91
2022-11-19T08:35:11.584Z,101242.78
2022-11-19T08:37:41.145Z,101261.91
2022-11-19T08:40:10.740Z,101249.75
2022-11-19T08:42:56.575Z,101237.69
2022-11-19T08:45:24.768Z,101243.09
2022-11-19T08:47:53.039Z,101235.84
2022-11-19T08:50:21.370Z,101239.47
2022-11-19T08:52:58.956Z,101247.97
2022-11-19T08:55:28.307Z,101241.22
2022-11-19T08:58:01.423Z,101235.91
2022-11-19T09:00:30.195Z,101218.56
2022-11-19T09:02:58.428Z,101214.41
2022-11-19T09:05:27.627Z,101223.94
2022-11-19T09:07:57.282Z,101235.22
2022-11-19T09:10:25.613Z,101213.75
2022-11-19T09:12:54.309Z,101211.97
2022-11-19T09:15:23.113Z,101215.53
2022-11-19T09:17:51.131Z,101196.47
2022-11-19T09:20:19.816Z,101203.47
2022-11-19T09:22:47.989Z,101213.75
2022-11-19T09:25:18.074Z,101194.72
2022-11-19T09:27:46.359Z,101190.38
2022-11-19T09:30:15.570Z,101187.97
2022-11-19T09:32:43.726Z,101195.66
2022-11-19T09:35:11.979Z,101175.69
2022-11-19T09:37:40.063Z,101176.06
2022-11-19T09:40:10.572Z,101172.75
2022-11-19T09:42:47.700Z,101174.31
2022-11-19T09:45:22.649Z,101194.25
2022-11-19T09:48:17.575Z,101171.59
2022-11-19T09:50:53.670Z,101181.50
2022-11-19T09:53:24.131Z,101176.03
2022-11-19T09:55:55.158Z,101164.06
2022-11-19T09:58:32.111Z,101177.94
2022-11-19T10:01:00.326Z,101171.84
2022-11-19T10:03:33.463Z,101165.75
2022-11-19T10:06:22.132Z,101162.13
2022-11-19T10:09:11.521Z,101170.56
2022-11-19T10:11:52.133Z,101177.72
2022-11-19T10:14:46.532Z,101153.03
2022-11-19T10:17:26.152Z,101143.00
2022-11-19T10:20:10.333Z,101149.34
2022-11-19T10:22:50.649Z,101150.16
2022-11-19T10:25:25.395Z,101157.97
2022-11-19T10:27:55.900Z,101165.75
2022-11-19T10:30:27.607Z,101179.69
2022-11-19T10:32:59.924Z,101192.81
2022-11-19T10:35:33.483Z,101203.94
2022-11-19T10:38:05.718Z,101207.47
2022-11-19T10:40:39.756Z,101189.16
2022-11-19T10:43:23.416Z,101195.41
2022-11-19T10:45:53.341Z,101179.69
2022-11-19T10:48:23.587Z,101190.47
2022-11-19T10:50:52.403Z,101194.09
2022-11-19T10:53:25.638Z,101190.47
2022-11-19T10:55:58.570Z,101174.69
2022-11-19T10:58:30.576Z,101192.13
2022-11-19T11:01:03.141Z,101182.84
2022-11-19T11:03:35.988Z,101188.03
2022-11-19T11:06:06.852Z,101158.91
2022-11-19T11:08:47.917Z,101159.81
2022-11-19T11:11:47.173Z,101199.06
2022-11-19T11:14:48.241Z,101183.94
2022-11-19T11:17:23.338Z,101191.56
2022-11-19T11:20:00.279Z,101187.97
2022-11-19T11:22:29.283Z,101191.38
2022-11-19T11:25:00.534Z,101197.22
2022-11-19T11:27:34.326Z,101173.47
2022-11-19T11:30:16.712Z,101197.81
2022-11-19T11:32:47.662Z,101199.94
2022-11-19T11:35:33.456Z,101185.84
2022-11-19T11:38:02.958Z,101201.63
2022-11-19T11:40:31.674Z,101192.59
2022-11-19T11:43:00.260Z,101190.84
2022-11-19T11:45:33.212Z,101191.69
2022-11-19T11:48:08.727Z,101180.94
2022-11-19T11:50:46.252Z,101183.69
2022-11-19T11:53:16.390Z,101187.59
2022-11-19T11:55:45.003Z,101166.22
2022-11-19T11:58:29.154Z,101187.03
2022-11-19T12:01:15.622Z,101174.78
2022-11-19T12:03:55.933Z,101169.66
2022-11-19T12:06:27.113Z,101174.25
2022-11-19T12:09:04.665Z,101179.97
2022-11-19T12:11:53.127Z,101172.75
2022-11-19T12:14:25.593Z,101188.63
2022-11-19T12:17:22.402Z,101191.66
2022-11-19T12:20:16.053Z,101181.34
2022-11-19T12:22:56.677Z,101172.63
2022-11-19T12:25:33.008Z,101159.06
2022-11-19T12:28:26.333Z,101167.34
2022-11-19T12:31:09.410Z,101153.63
2022-11-19T12:33:53.348Z,101145.22
2022-11-19T12:36:30.660Z,101139.06
2022-11-19T12:39:04.453Z,101135.44
2022-11-19T12:42:05.800Z,101150.41
2022-11-19T12:44:46.952Z,101127.50
2022-11-19T12:47:29.136Z,101150.25
2022-11-19T12:50:06.792Z,101150.81
2022-11-19T12:52:54.476Z,101144.50
2022-11-19T12:55:28.530Z,101133.41
2022-11-19T12:58:06.345Z,101152.44
2022-11-19T13:00:41.174Z,101158.41
2022-11-19T13:03:15.170Z,101150.81
2022-11-19T13:05:50.902Z,101143.81
2022-11-19T13:08:29.291Z,101142.91
2022-11-19T13:11:07.962Z,101151.63
2022-11-19T13:13:42.679Z,101145.59
2022-11-19T13:16:13.519Z,101148.91
2022-11-19T13:18:45.216Z,101142.78
2022-11-19T13:21:24.842Z,101119.28
2022-11-19T13:23:56.183Z,101140.41
2022-11-19T13:26:27.407Z,101133.31
2022-11-19T13:28:58.541Z,101149.13
2022-11-19T13:31:34.612Z,101156.72
2022-11-19T13:34:09.426Z,101148.28
2022-11-19T13:36:44.221Z,101150.50
2022-11-19T13:39:19.284Z,101136.69
2022-11-19T13:42:09.336Z,101137.59
2022-11-19T13:44:42.140Z,101150.63
2022-11-19T13:47:16.884Z,101141.88
2022-11-19T13:49:46.917Z,101115.56
2022-11-19T13:52:23.906Z,101138.44
2022-11-19T13:54:53.478Z,101130.94
2022-11-19T13:57:29.529Z,101145.88
2022-11-19T14:00:01.345Z,101128.47
2022-11-19T14:02:59.856Z,101140.22
2022-11-19T14:05:42.940Z,101156.81
2022-11-19T14:08:35.289Z,101154.91
2022-11-19T14:11:18.607Z,101153.88
2022-11-19T14:14:05.026Z,101156.72
2022-11-19T14:17:00.615Z,101153.47
2022-11-19T14:19:47.131Z,101171.69
2022-11-19T14:22:52.909Z,101148.94
2022-11-19T14:26:01.250Z,101159.25
2022-11-19T14:28:45.233Z,101168.00
2022-11-19T14:31:14.524Z,101158.63
2022-11-19T14:33:57.507Z,101157.75
2022-11-19T14:36:37.989Z,101139.94
2022-11-19T14:39:16.738Z,101166.09
2022-11-19T14:41:45.953Z,101153.09
2022-11-19T14:44:37.039Z,101161.00
2022-11-19T14:47:33.748Z,101159.06
2022-11-19T14:50:05.387Z,101160.91
2022-11-19T14:52:39.735Z,101155.63
2022-11-19T14:55:22.084Z,101145.94
2022-11-19T14:58:01.913Z,101135.28
2022-11-19T15:00:34.668Z,101132.97
2022-11-19T15:03:05.305Z,101124.13
2022-11-19T15:05:35.820Z,101124.13
2022-11-19T15:08:30.458Z,101112.94
2022-11-19T15:11:07.854Z,101106.03
2022-11-19T15:13:37.280Z,101100.25
2022-11-19T15:16:12.706Z,101094.88
2022-11-19T15:19:10.936Z,101086.13
2022-11-19T15:21:57.117Z,101070.44
2022-11-19T15:24:39.995Z,101067.25
2022-11-19T15:27:19.966Z,101056.69
2022-11-19T15:30:07.304Z,101037.72
2022-11-19T15:32:53.423Z,101025.66
2022-11-19T15:35:36.885Z,101036.03
2022-11-19T15:38:13.125Z,101029.25
2022-11-19T15:40:44.965Z,101020.72
2022-11-19T15:43:20.881Z,101025.91
2022-11-19T15:45:53.570Z,101027.84
2022-11-19T15:48:28.317Z,101045.06
2022-11-19T15:50:56.927Z,101038.97
2022-11-19T15:53:26.170Z,101044.94
2022-11-19T15:55:59.563Z,101046.56
2022-11-19T15:58:31.301Z,101044.06
2022-11-19T16:00:59.830Z,101049.97
2022-11-19T16:03:32.193Z,101044.78
2022-11-19T16:06:04.549Z,101048.38
2022-11-19T16:08:33.865Z,101035.09
2022-11-19T16:11:21.143Z,101054.44
2022-11-19T16:14:10.808Z,101056.03
2022-11-19T16:16:56.695Z,101051.94
2022-11-19T16:19:26.344Z,101046.78
2022-11-19T16:21:59.779Z,101044.28
2022-11-19T16:24:47.579Z,101037.25
2022-11-19T16:27:25.209Z,101043.19
2022-11-19T16:29:54.106Z,101037.91
2022-11-19T16:32:25.619Z,101041.44
2022-11-19T16:35:10.291Z,101042.09
2022-11-19T16:37:39.546Z,101039.66
2022-11-19T16:40:09.097Z,101043.03
2022-11-19T16:42:36.912Z,101041.59
2022-11-19T16:45:15.891Z,101059.69
2022-11-19T16:47:54.660Z,101055.19
2022-11-19T16:50:32.830Z,101065.69
2022-11-19T16:53:02.548Z,101060.75
2022-11-19T16:55:51.570Z,101064.97
2022-11-19T16:58:29.011Z,101058.06
2022-11-19T17:00:59.807Z,101066.28
2022-11-19T17:03:35.954Z,101074.72
2022-11-19T17:06:07.611Z,101067.00
2022-11-19T17:08:40.473Z,101070.53
2022-11-19T17:11:38.139Z,101073.91
2022-11-19T17:14:20.755Z,101083.75
2022-11-19T17:16:50.840Z,101081.38
2022-11-19T17:19:27.155Z,101090.19
2022-11-19T17:22:01.515Z,101085.09
2022-11-19T17:24:33.108Z,101078.19
2022-11-19T17:27:01.403Z,101085.03
2022-11-19T17:29:29.541Z,101091.97
2022-11-19T17:31:58.073Z,101076.53
2022-11-19T17:34:32.275Z,101097.66
2022-11-19T17:37:02.095Z,101084.47
2022-11-19T17:39:30.464Z,101086.13
2022-11-19T17:42:16.608Z,101079.09
2022-11-19T17:44:44.671Z,101083.31
2022-11-19T17:47:24.607Z,101073.69
2022-11-19T17:49:53.435Z,101067.69
2022-11-19T17:52:25.373Z,101033.53
2022-11-19T17:54:56.254Z,101039.31
2022-11-19T17:57:24.468Z,101049.81
2022-11-19T17:59:52.696Z,101035.81
2022-11-19T18:02:22.367Z,101053.16
2022-11-19T18:04:50.721Z,101032.09
2022-11-19T18:07:19.226Z,101026.88
2022-11-19T18:09:49.045Z,101023.38
2022-11-19T18:12:19.038Z,101011.19
2022-11-19T18:14:47.967Z,101014.38
2022-11-19T18:17:16.820Z,101000.72
2022-11-19T18:19:45.286Z,101000.72
2022-11-19T18:22:19.420Z,100986.72
2022-11-19T18:24:50.576Z,100995.16
2022-11-19T18:27:19.044Z,100991.63
2022-11-19T18:29:47.594Z,100988.00
2022-11-19T18:32:17.193Z,100990.75
2022-11-19T18:34:46.101Z,100983.00
2022-11-19T18:37:14.564Z,100993.31
2022-11-19T18:39:42.779Z,100991.53
2022-11-19T18:42:13.295Z,100987.84
2022-11-19T18:44:43.514Z,100980.22
2022-11-19T18:47:13.160Z,100975.69
2022-11-19T18:49:41.231Z,100979.28
2022-11-19T18:52:14.757Z,100972.25
2022-11-19T18:54:42.946Z,100973.22
2022-11-19T18:57:12.986Z,100976.59
2022-11-19T18:59:41.794Z,100981.91
2022-11-19T19:02:11.325Z,100949.09
2022-11-19T19:04:39.717Z,100977.47
2022-11-19T19:07:08.228Z,100972.16
2022-11-19T19:09:37.615Z,100970.47
2022-11-19T19:12:22.367Z,100957.34
2022-11-19T19:14:52.711Z,100956.47
2022-11-19T19:17:21.105Z,100953.06
2022-11-19T19:19:50.053Z,100947.19
2022-11-19T19:22:18.653Z,100945.97
2022-11-19T19:24:47.156Z,100940.78
2022-11-19T19:27:16.233Z,100940.53
2022-11-19T19:29:44.425Z,100936.38
2022-11-19T19:32:14.120Z,100940.72
2022-11-19T19:34:42.462Z,100932.72
2022-11-19T19:37:10.674Z,100936.91
2022-11-19T19:39:39.056Z,100941.91
2022-11-19T19:42:07.771Z,100942.09
2022-11-19T19:44:37.055Z,100938.59
2022-11-19T19:47:06.761Z,100935.13
2022-11-19T19:49:39.084Z,100934.50
2022-11-19T19:52:07.648Z,100938.84
2022-11-19T19:54:35.879Z,100922.22
2022-11-19T19:57:04.072Z,100937.09
2022-11-19T19:59:32.364Z,100931.63
2022-11-19T20:02:00.584Z,100938.69
2022-11-19T20:04:28.860Z,100932.16
2022-11-19T20:06:58.702Z,100931.91
2022-11-19T20:09:27.599Z,100946.84
2022-11-19T20:11:56.027Z,100934.28
2022-11-19T20:14:24.266Z,100933.13
2022-11-19T20:16:52.912Z,100931.53
2022-11-19T20:19:21.285Z,100931.47
2022-11-19T20:21:49.686Z,100933.13
2022-11-19T20:24:20.259Z,100920.59
2022-11-19T20:26:48.424Z,100921.66
2022-11-19T20:29:17.852Z,100920.59
2022-11-19T20:31:48.163Z,100920.59
2022-11-19T20:34:17.572Z,100934.72
2022-11-19T20:36:45.895Z,100929.41
2022-11-19T20:39:14.617Z,100926.81
2022-11-19T20:42:01.624Z,100920.50
2022-11-19T20:44:30.506Z,100907.28
2022-11-19T20:46:59.668Z,100909.91
2022-11-19T20:49:29.781Z,100917.88
2022-11-19T20:51:58.307Z,100918.66
2022-11-19T20:54:27.584Z,100909.75
2022-11-19T20:56:58.280Z,100886.19
2022-11-19T20:59:28.811Z,100906.41
2022-11-19T21:01:58.640Z,100906.28
2022-11-19T21:04:29.359Z,100892.41
2022-11-19T21:06:57.501Z,100876.34
2022-11-19T21:09:30.447Z,100894.06
2022-11-19T21:12:00.239Z,100888.72
2022-11-19T21:14:28.487Z,100874.72
2022-11-19T21:16:56.650Z,100874.78
2022-11-19T21:19:25.089Z,100878.91
2022-11-19T21:21:54.060Z,100865.50
2022-11-19T21:24:22.424Z,100856.09
2022-11-19T21:26:53.701Z,100824.50
2022-11-19T21:29:23.782Z,100816.47
2022-11-19T21:31:52.378Z,100851.91
2022-11-19T21:34:21.718Z,100839.66
2022-11-19T21:36:50.916Z,100840.66
2022-11-19T21:39:21.289Z,100841.31
2022-11-19T21:41:49.892Z,100822.03
2022-11-19T21:44:21.435Z,100845.03
2022-11-19T21:46:51.644Z,100849.94
2022-11-19T21:49:20.618Z,100843.16
2022-11-19T21:51:49.175Z,100846.50
2022-11-19T21:54:17.477Z,100846.41
2022-11-19T21:56:45.972Z,100821.75
2022-11-19T21:59:14.438Z,100830.84
2022-11-19T22:01:42.682Z,100825.66
2022-11-19T22:04:15.562Z,100825.66
2022-11-19T22:06:43.743Z,100818.63
2022-11-19T22:09:11.918Z,100826.41
2022-11-19T22:11:40.133Z,100822.97
2022-11-19T22:14:10.711Z,100822.03
2022-11-19T22:16:40.972Z,100816.78
2022-11-19T22:19:11.636Z,100816.84
2022-11-19T22:21:41.778Z,100814.91
2022-11-19T22:24:10.274Z,100809.72
2022-11-19T22:26:38.481Z,100809.81
2022-11-19T22:29:06.683Z,100809.53
2022-11-19T22:31:34.935Z,100799.72
2022-11-19T22:34:03.278Z,100813.72
2022-11-19T22:36:33.408Z,100788.94
2022-11-19T22:39:03.538Z,100810.09
2022-11-19T22:41:31.877Z,100804.16
2022-11-19T22:44:00.139Z,100803.31
2022-11-19T22:46:28.520Z,100800.72
2022-11-19T22:48:56.768Z,100805.81
2022-11-19T22:51:26.654Z,100799.88
2022-11-19T22:53:55.935Z,100798.84
2022-11-19T22:56:27.644Z,100791.81
2022-11-19T22:58:56.563Z,100786.81
2022-11-19T23:01:26.427Z,100790.34
2022-11-19T23:03:55.739Z,100798.06
2022-11-19T23:06:24.445Z,100789.88
2022-11-19T23:08:52.999Z,100806.59
2022-11-19T23:11:43.570Z,100800.53
2022-11-19T23:14:14.915Z,100803.88
2022-11-19T23:16:43.722Z,100788.06
2022-11-19T23:19:13.209Z,100783.00
2022-11-19T23:21:42.167Z,100779.66
2022-11-19T23:24:11.251Z,100783.19
2022-11-19T23:26:39.733Z,100779.88
2022-11-19T23:29:09.253Z,100764.03
2022-11-19T23:31:40.761Z,100766.66
2022-11-19T23:34:09.742Z,100778.09
2022-11-19T23:36:40.057Z,100785.16
2022-11-19T23:39:10.625Z,100786.91
2022-11-19T23:41:38.834Z,100779.97
2022-11-19T23:44:06.910Z,100759.03
2022-11-19T23:46:37.051Z,100777.44
2022-11-19T23:49:07.040Z,100778.09
2022-11-19T23:51:37.920Z,100779.34
2022-11-19T23:54:08.432Z,100778.31
2022-11-19T23:56:37.251Z,100780.16
2022-11-19T23:59:06.670Z,100772.31
